createdAt,value
2022-07-31T00:04:51.284Z,20.10
2022-07-31T00:09:55.463Z,20.20
2022-07-31T00:14:58.194Z,20.18
2022-07-31T00:20:02.781Z,20.02
2022-07-31T00:25:06.222Z,19.96
2022-07-31T00:30:09.743Z,19.91
2022-07-31T00:35:14.917Z,19.71
2022-07-31T00:40:18.802Z,19.70
2022-07-31T00:45:22.227Z,19.69
2022-07-31T00:50:33.264Z,19.59
2022-07-31T00:55:51.039Z,19.52
2022-07-31T01:00:54.911Z,19.46
2022-07-31T01:05:59.068Z,19.47
2022-07-31T01:11:05.633Z,19.35
2022-07-31T01:16:14.392Z,19.15
2022-07-31T01:21:22.392Z,19.13
2022-07-31T01:26:36.174Z,19.08
2022-07-31T01:31:43.329Z,19.01
2022-07-31T01:36:56.592Z,19.02
2022-07-31T01:42:02.809Z,18.85
2022-07-31T01:47:07.737Z,18.81
2022-07-31T01:52:11.056Z,18.79
2022-07-31T01:57:17.185Z,18.60
2022-07-31T02:02:27.492Z,18.52
2022-07-31T02:07:30.545Z,18.43
2022-07-31T02:12:34.307Z,18.38
2022-07-31T02:17:39.645Z,18.32
2022-07-31T02:23:01.864Z,18.31
2022-07-31T02:28:07.397Z,18.21
2022-07-31T02:33:13.323Z,18.17
2022-07-31T02:38:22.993Z,18.17
2022-07-31T02:43:28.560Z,18.00
2022-07-31T02:48:33.887Z,17.97
2022-07-31T02:53:40.204Z,17.97
2022-07-31T02:58:45.352Z,17.91
2022-07-31T03:03:57.046Z,17.81
2022-07-31T03:08:59.760Z,17.78
2022-07-31T03:14:04.523Z,17.64
2022-07-31T03:19:09.365Z,17.68
2022-07-31T03:24:12.307Z,17.57
2022-07-31T03:29:42.695Z,17.68
2022-07-31T03:34:39.524Z,17.60
2022-07-31T03:39:42.360Z,17.53
2022-07-31T03:44:49.106Z,17.54
2022-07-31T03:49:54.094Z,17.50
2022-07-31T03:54:56.873Z,17.48
2022-07-31T04:00:02.269Z,17.47
2022-07-31T04:05:10.361Z,17.46
2022-07-31T04:10:15.511Z,17.50
2022-07-31T04:15:18.342Z,17.45
2022-07-31T04:20:23.189Z,17.50
2022-07-31T04:25:26.403Z,17.56
2022-07-31T04:30:52.059Z,17.57
2022-07-31T04:35:56.148Z,17.55
2022-07-31T04:40:58.840Z,17.61
2022-07-31T04:46:02.070Z,17.73
2022-07-31T04:51:24.134Z,17.91
2022-07-31T04:56:37.514Z,17.71
2022-07-31T05:01:41.093Z,17.87
2022-07-31T05:06:46.383Z,17.91
2022-07-31T05:11:49.155Z,17.69
2022-07-31T05:16:52.290Z,17.85
2022-07-31T05:22:01.799Z,17.94
2022-07-31T05:27:19.306Z,17.93
2022-07-31T05:32:22.388Z,17.86
2022-07-31T05:37:26.478Z,18.12
2022-07-31T05:42:29.273Z,18.23
2022-07-31T05:47:50.403Z,18.44
2022-07-31T05:52:55.037Z,18.58
2022-07-31T05:58:17.193Z,18.61
2022-07-31T06:03:24.323Z,18.70
2022-07-31T06:08:34.490Z,18.80
2022-07-31T06:13:42.620Z,18.93
2022-07-31T06:19:08.147Z,18.88
2022-07-31T06:24:13.211Z,19.10
2022-07-31T06:29:19.200Z,19.33
2022-07-31T06:34:42.255Z,19.32
2022-07-31T06:39:54.288Z,19.43
2022-07-31T06:45:51.732Z,19.66
2022-07-31T06:56:40.054Z,20.10
2022-07-31T07:01:42.949Z,20.35
2022-07-31T07:06:45.724Z,20.28
2022-07-31T07:11:54.675Z,20.47
2022-07-31T07:16:57.785Z,20.52
2022-07-31T07:22:00.834Z,20.63
2022-07-31T07:27:05.403Z,20.83
2022-07-31T07:32:08.342Z,20.67
2022-07-31T07:37:11.168Z,20.75
2022-07-31T07:42:15.317Z,20.64
2022-07-31T07:47:18.141Z,20.76
2022-07-31T07:52:21.761Z,20.99
2022-07-31T07:57:46.474Z,21.12
2022-07-31T08:03:49.801Z,21.03
2022-07-31T08:08:30.756Z,21.21
2022-07-31T08:13:50.520Z,21.31
2022-07-31T08:19:05.623Z,21.69
2022-07-31T08:24:11.345Z,21.83
2022-07-31T08:29:15.533Z,21.85
2022-07-31T08:34:30.942Z,22.13
2022-07-31T08:39:39.313Z,22.30
2022-07-31T08:44:46.578Z,22.63
2022-07-31T08:49:52.947Z,22.83
2022-07-31T08:54:56.398Z,23.12
2022-07-31T09:00:01.432Z,23.08
2022-07-31T09:05:05.088Z,23.37
2022-07-31T09:10:09.967Z,23.44
2022-07-31T09:15:22.861Z,23.57
2022-07-31T09:20:27.108Z,23.90
2022-07-31T09:25:31.077Z,23.91
2022-07-31T09:30:35.380Z,23.79
2022-07-31T09:36:16.806Z,23.95
2022-07-31T09:41:56.689Z,24.04
2022-07-31T09:46:54.885Z,23.88
2022-07-31T09:51:57.636Z,23.92
2022-07-31T09:57:12.250Z,24.11
2022-07-31T10:02:19.966Z,24.22
2022-07-31T10:07:32.361Z,24.00
2022-07-31T10:12:52.558Z,24.09
2022-07-31T10:17:57.029Z,23.93
2022-07-31T10:23:17.827Z,23.84
2022-07-31T10:28:22.769Z,23.94
2022-07-31T10:33:43.558Z,23.87
2022-07-31T10:39:11.133Z,23.40
2022-07-31T10:44:35.487Z,23.39
2022-07-31T10:50:03.763Z,23.68
2022-07-31T10:55:25.315Z,23.63
2022-07-31T11:00:43.848Z,24.07
2022-07-31T11:06:14.014Z,23.98
2022-07-31T11:11:35.609Z,23.70
2022-07-31T11:17:01.436Z,24.31
2022-07-31T11:22:31.665Z,24.31
2022-07-31T11:27:35.799Z,24.50
2022-07-31T11:32:38.482Z,24.35
2022-07-31T11:37:56.724Z,24.56
2022-07-31T11:48:27.796Z,25.68
2022-07-31T11:53:32.595Z,25.22
2022-07-31T11:58:36.305Z,24.88
2022-07-31T12:03:39.702Z,24.89
2022-07-31T12:08:43.850Z,24.90
2022-07-31T12:13:48.212Z,25.14
2022-07-31T12:18:52.795Z,25.07
2022-07-31T12:23:58.138Z,25.22
2022-07-31T12:29:02.389Z,25.44
2022-07-31T12:34:05.080Z,25.27
2022-07-31T12:39:12.641Z,25.37
2022-07-31T12:44:15.353Z,25.24
2022-07-31T12:49:24.400Z,24.55
2022-07-31T12:54:28.465Z,24.75
2022-07-31T12:59:31.149Z,24.91
2022-07-31T13:04:34.127Z,24.71
2022-07-31T13:09:38.149Z,25.41
2022-07-31T13:14:40.837Z,25.16
2022-07-31T13:19:43.528Z,25.39
2022-07-31T13:24:47.562Z,24.20
2022-07-31T13:29:50.238Z,24.44
2022-07-31T13:35:25.943Z,24.56
2022-07-31T13:40:18.947Z,24.46
2022-07-31T13:45:21.631Z,24.54
2022-07-31T13:50:24.305Z,24.50
2022-07-31T13:55:28.345Z,24.45
2022-07-31T14:00:31.356Z,24.42
2022-07-31T14:05:39.927Z,25.20
2022-07-31T14:10:48.376Z,25.18
2022-07-31T14:15:52.737Z,24.52
2022-07-31T14:20:55.420Z,24.63
2022-07-31T14:25:59.448Z,24.26
2022-07-31T14:31:03.799Z,24.41
2022-07-31T14:36:07.022Z,24.33
2022-07-31T14:41:11.066Z,24.33
2022-07-31T14:46:13.744Z,23.94
2022-07-31T14:51:19.497Z,24.26
2022-07-31T14:56:45.103Z,24.19
2022-07-31T15:01:46.229Z,24.53
2022-07-31T15:06:56.155Z,24.72
2022-07-31T15:12:08.684Z,25.10
2022-07-31T15:17:11.603Z,24.84
2022-07-31T15:22:16.280Z,24.89
2022-07-31T15:27:22.150Z,24.88
2022-07-31T15:32:25.425Z,24.91
2022-07-31T15:37:30.042Z,24.63
2022-07-31T15:42:37.063Z,24.73
2022-07-31T15:47:40.605Z,24.82
2022-07-31T15:52:43.792Z,24.91
2022-07-31T15:57:47.833Z,24.96
2022-07-31T16:02:51.916Z,25.03
2022-07-31T16:08:30.040Z,24.99
2022-07-31T16:13:19.418Z,25.20
2022-07-31T16:18:22.134Z,25.19
2022-07-31T16:23:27.313Z,25.57
2022-07-31T16:28:31.373Z,25.51
2022-07-31T16:33:34.054Z,25.32
2022-07-31T16:38:36.714Z,25.20
2022-07-31T16:43:48.712Z,25.11
2022-07-31T16:48:53.899Z,24.87
2022-07-31T16:54:13.289Z,24.74
2022-07-31T16:59:19.245Z,24.63
2022-07-31T17:04:22.195Z,24.71
2022-07-31T17:09:24.919Z,24.67
2022-07-31T17:14:29.053Z,24.86
2022-07-31T17:19:41.326Z,24.74
2022-07-31T17:24:50.539Z,24.61
2022-07-31T17:29:55.356Z,24.60
2022-07-31T17:34:58.028Z,24.16
2022-07-31T17:40:00.710Z,23.65
2022-07-31T17:45:05.498Z,23.43
2022-07-31T17:50:10.672Z,23.18
2022-07-31T17:55:13.662Z,23.06
2022-07-31T18:00:18.451Z,22.78
2022-07-31T18:05:21.241Z,22.33
2022-07-31T18:10:45.017Z,21.65
2022-07-31T18:15:48.219Z,21.55
2022-07-31T18:20:50.898Z,21.08
2022-07-31T18:25:53.582Z,20.53
2022-07-31T18:30:57.610Z,20.94
2022-07-31T18:36:00.795Z,20.61
2022-07-31T18:41:03.504Z,21.22
2022-07-31T18:46:07.834Z,21.09
2022-07-31T18:51:10.598Z,21.16
2022-07-31T18:56:13.377Z,21.16
2022-07-31T19:01:17.471Z,20.91
2022-07-31T19:06:22.555Z,20.79
2022-07-31T19:11:27.903Z,20.77
2022-07-31T19:16:32.027Z,20.87
2022-07-31T19:21:42.020Z,21.06
2022-07-31T19:26:45.658Z,21.06
2022-07-31T19:31:50.358Z,21.04
2022-07-31T19:36:53.685Z,20.84
2022-07-31T19:42:21.473Z,20.89
2022-07-31T19:47:21.596Z,20.36
2022-07-31T19:52:25.016Z,19.85
2022-07-31T19:57:27.720Z,19.20
2022-07-31T20:02:32.266Z,19.31
2022-07-31T20:07:35.290Z,19.46
2022-07-31T20:12:39.506Z,19.85
2022-07-31T20:17:43.694Z,19.86
2022-07-31T20:22:46.397Z,19.94
2022-07-31T20:27:49.768Z,20.10
2022-07-31T20:32:54.066Z,20.11
2022-07-31T20:37:58.710Z,20.06
2022-07-31T20:43:03.304Z,20.07
2022-07-31T20:48:08.375Z,20.07
2022-07-31T20:53:11.085Z,20.02
2022-07-31T20:58:13.787Z,20.02
2022-07-31T21:03:17.998Z,19.93
2022-07-31T21:08:20.701Z,19.89
2022-07-31T21:13:23.393Z,19.89
2022-07-31T21:18:30.409Z,19.85
2022-07-31T21:23:35.457Z,19.84
2022-07-31T21:28:39.403Z,19.89
2022-07-31T21:33:44.073Z,19.75
2022-07-31T21:38:47.276Z,19.85
2022-07-31T21:43:59.582Z,19.86
2022-07-31T21:49:04.168Z,19.69
2022-07-31T21:54:07.074Z,19.71
2022-07-31T21:59:09.757Z,19.81
2022-07-31T22:04:13.786Z,19.82
2022-07-31T22:09:19.050Z,19.74
2022-07-31T22:14:22.443Z,19.81
2022-07-31T22:19:27.034Z,19.94
2022-07-31T22:24:30.205Z,19.86
2022-07-31T22:29:34.678Z,19.72
2022-07-31T22:34:38.953Z,19.50
2022-07-31T22:39:41.722Z,19.54
2022-07-31T22:44:44.806Z,19.48
2022-07-31T22:49:49.067Z,19.38
2022-07-31T22:54:51.789Z,19.61
2022-07-31T22:59:54.487Z,19.41
2022-07-31T23:04:58.506Z,19.48
2022-07-31T23:10:01.233Z,19.30
2022-07-31T23:15:04.606Z,19.39
2022-07-31T23:20:09.814Z,19.36
2022-07-31T23:25:12.894Z,19.39
2022-07-31T23:30:15.582Z,19.42
2022-07-31T23:35:19.791Z,19.52
2022-07-31T23:40:22.709Z,19.49
2022-07-31T23:45:25.614Z,19.37
2022-07-31T23:50:29.726Z,19.35
2022-07-31T23:55:32.414Z,19.26
